sensor_id;sensor_type;location;lat;lon;timestamp;P1;durP1;ratioP1;P2;durP2;ratioP2
35380;SDS011;21486;51.916;8.378;2024-02-16T00:00:22;5.20;;;2.38;;
35380;SDS011;21486;51.916;8.378;2024-02-16T00:02:49;7.63;;;2.30;;
35380;SDS011;21486;51.916;8.378;2024-02-16T00:05:14;8.53;;;3.10;;
35380;SDS011;21486;51.916;8.378;2024-02-16T00:07:40;7.35;;;2.80;;
35380;SDS011;21486;51.916;8.378;2024-02-16T00:10:06;8.77;;;2.50;;
35380;SDS011;21486;51.916;8.378;2024-02-16T00:12:33;5.55;;;2.55;;
35380;SDS011;21486;51.916;8.378;2024-02-16T00:14:59;6.60;;;2.10;;
35380;SDS011;21486;51.916;8.378;2024-02-16T00:17:25;9.68;;;2.65;;
35380;SDS011;21486;51.916;8.378;2024-02-16T00:19:54;5.25;;;2.20;;
35380;SDS011;21486;51.916;8.378;2024-02-16T00:22:21;5.38;;;2.30;;
35380;SDS011;21486;51.916;8.378;2024-02-16T00:24:47;5.90;;;1.90;;
35380;SDS011;21486;51.916;8.378;2024-02-16T00:27:13;6.25;;;2.28;;
35380;SDS011;21486;51.916;8.378;2024-02-16T00:29:39;3.92;;;2.30;;
35380;SDS011;21486;51.916;8.378;2024-02-16T00:32:04;4.28;;;2.67;;
35380;SDS011;21486;51.916;8.378;2024-02-16T00:34:33;9.27;;;2.70;;
35380;SDS011;21486;51.916;8.378;2024-02-16T00:37:00;6.97;;;2.30;;
35380;SDS011;21486;51.916;8.378;2024-02-16T00:39:26;6.13;;;2.10;;
35380;SDS011;21486;51.916;8.378;2024-02-16T00:41:52;4.80;;;2.15;;
35380;SDS011;21486;51.916;8.378;2024-02-16T00:44:17;8.98;;;2.70;;
35380;SDS011;21486;51.916;8.378;2024-02-16T00:46:46;8.43;;;2.30;;
35380;SDS011;21486;51.916;8.378;2024-02-16T00:49:12;4.60;;;2.33;;
35380;SDS011;21486;51.916;8.378;2024-02-16T00:51:37;6.70;;;2.30;;
35380;SDS011;21486;51.916;8.378;2024-02-16T00:54:04;4.05;;;2.35;;
35380;SDS011;21486;51.916;8.378;2024-02-16T00:56:30;5.70;;;2.37;;
35380;SDS011;21486;51.916;8.378;2024-02-16T00:58:57;5.00;;;2.35;;
35380;SDS011;21486;51.916;8.378;2024-02-16T01:01:22;6.30;;;2.40;;
35380;SDS011;21486;51.916;8.378;2024-02-16T01:03:49;9.07;;;2.40;;
35380;SDS011;21486;51.916;8.378;2024-02-16T01:06:16;7.40;;;2.40;;
35380;SDS011;21486;51.916;8.378;2024-02-16T01:08:42;5.40;;;2.13;;
35380;SDS011;21486;51.916;8.378;2024-02-16T01:11:08;4.27;;;2.00;;
35380;SDS011;21486;51.916;8.378;2024-02-16T01:13:33;6.33;;;2.57;;
35380;SDS011;21486;51.916;8.378;2024-02-16T01:15:59;6.03;;;1.90;;
35380;SDS011;21486;51.916;8.378;2024-02-16T01:18:25;4.43;;;2.17;;
35380;SDS011;21486;51.916;8.378;2024-02-16T01:20:53;4.63;;;2.20;;
35380;SDS011;21486;51.916;8.378;2024-02-16T01:23:19;6.13;;;2.42;;
35380;SDS011;21486;51.916;8.378;2024-02-16T01:25:45;5.20;;;2.23;;
35380;SDS011;21486;51.916;8.378;2024-02-16T01:28:11;7.03;;;2.45;;
35380;SDS011;21486;51.916;8.378;2024-02-16T01:33:01;5.75;;;2.30;;
35380;SDS011;21486;51.916;8.378;2024-02-16T01:35:27;4.17;;;2.10;;
35380;SDS011;21486;51.916;8.378;2024-02-16T01:37:53;7.97;;;2.40;;
35380;SDS011;21486;51.916;8.378;2024-02-16T01:40:18;7.85;;;2.50;;
35380;SDS011;21486;51.916;8.378;2024-02-16T01:42:44;8.30;;;2.67;;
35380;SDS011;21486;51.916;8.378;2024-02-16T01:45:10;6.37;;;2.20;;
35380;SDS011;21486;51.916;8.378;2024-02-16T01:47:37;7.93;;;2.40;;
35380;SDS011;21486;51.916;8.378;2024-02-16T01:50:03;5.10;;;1.95;;
35380;SDS011;21486;51.916;8.378;2024-02-16T01:52:30;6.88;;;2.20;;
35380;SDS011;21486;51.916;8.378;2024-02-16T01:54:58;5.68;;;2.20;;
35380;SDS011;21486;51.916;8.378;2024-02-16T01:57:24;5.97;;;2.42;;
35380;SDS011;21486;51.916;8.378;2024-02-16T01:59:50;7.63;;;2.40;;
35380;SDS011;21486;51.916;8.378;2024-02-16T02:02:16;4.72;;;2.35;;
35380;SDS011;21486;51.916;8.378;2024-02-16T02:04:41;6.63;;;2.23;;
35380;SDS011;21486;51.916;8.378;2024-02-16T02:07:11;7.40;;;2.70;;
35380;SDS011;21486;51.916;8.378;2024-02-16T02:09:37;6.32;;;2.97;;
35380;SDS011;21486;51.916;8.378;2024-02-16T02:12:03;5.67;;;2.40;;
35380;SDS011;21486;51.916;8.378;2024-02-16T02:14:29;4.23;;;2.27;;
35380;SDS011;21486;51.916;8.378;2024-02-16T02:16:54;5.83;;;2.43;;
35380;SDS011;21486;51.916;8.378;2024-02-16T02:19:20;6.20;;;2.47;;
35380;SDS011;21486;51.916;8.378;2024-02-16T02:21:45;5.85;;;2.33;;
35380;SDS011;21486;51.916;8.378;2024-02-16T02:24:11;3.80;;;2.40;;
35380;SDS011;21486;51.916;8.378;2024-02-16T02:26:37;9.77;;;3.10;;
35380;SDS011;21486;51.916;8.378;2024-02-16T02:29:03;10.57;;;3.20;;
35380;SDS011;21486;51.916;8.378;2024-02-16T02:31:29;6.77;;;2.70;;
35380;SDS011;21486;51.916;8.378;2024-02-16T02:33:55;8.93;;;3.30;;
35380;SDS011;21486;51.916;8.378;2024-02-16T02:36:20;11.60;;;3.30;;
35380;SDS011;21486;51.916;8.378;2024-02-16T02:38:46;5.95;;;3.20;;
35380;SDS011;21486;51.916;8.378;2024-02-16T02:41:12;8.13;;;2.70;;
35380;SDS011;21486;51.916;8.378;2024-02-16T02:43:41;5.93;;;2.78;;
35380;SDS011;21486;51.916;8.378;2024-02-16T02:46:06;6.47;;;2.63;;
35380;SDS011;21486;51.916;8.378;2024-02-16T02:48:32;10.15;;;2.50;;
35380;SDS011;21486;51.916;8.378;2024-02-16T02:50:58;4.57;;;2.33;;
35380;SDS011;21486;51.916;8.378;2024-02-16T02:53:26;5.18;;;2.38;;
35380;SDS011;21486;51.916;8.378;2024-02-16T02:55:54;4.72;;;2.28;;
35380;SDS011;21486;51.916;8.378;2024-02-16T02:58:20;6.23;;;2.93;;
35380;SDS011;21486;51.916;8.378;2024-02-16T03:00:45;6.00;;;2.60;;
35380;SDS011;21486;51.916;8.378;2024-02-16T03:03:11;3.57;;;2.07;;
35380;SDS011;21486;51.916;8.378;2024-02-16T03:05:39;6.25;;;2.47;;
35380;SDS011;21486;51.916;8.378;2024-02-16T03:08:06;4.97;;;2.38;;
35380;SDS011;21486;51.916;8.378;2024-02-16T03:10:32;5.03;;;2.23;;
35380;SDS011;21486;51.916;8.378;2024-02-16T03:13:00;7.03;;;2.60;;
35380;SDS011;21486;51.916;8.378;2024-02-16T03:15:26;5.65;;;2.28;;
35380;SDS011;21486;51.916;8.378;2024-02-16T03:17:51;7.18;;;2.40;;
35380;SDS011;21486;51.916;8.378;2024-02-16T03:20:17;11.17;;;5.07;;
35380;SDS011;21486;51.916;8.378;2024-02-16T03:22:42;5.50;;;2.30;;
35380;SDS011;21486;51.916;8.378;2024-02-16T03:25:08;5.93;;;2.80;;
35380;SDS011;21486;51.916;8.378;2024-02-16T03:27:34;7.03;;;2.83;;
35380;SDS011;21486;51.916;8.378;2024-02-16T03:29:59;6.00;;;2.53;;
35380;SDS011;21486;51.916;8.378;2024-02-16T03:32:25;7.32;;;2.33;;
35380;SDS011;21486;51.916;8.378;2024-02-16T03:34:51;5.20;;;2.30;;
35380;SDS011;21486;51.916;8.378;2024-02-16T03:37:16;7.83;;;2.70;;
35380;SDS011;21486;51.916;8.378;2024-02-16T03:39:42;5.35;;;2.70;;
35380;SDS011;21486;51.916;8.378;2024-02-16T03:42:08;9.52;;;3.35;;
35380;SDS011;21486;51.916;8.378;2024-02-16T03:44:34;6.57;;;3.07;;
35380;SDS011;21486;51.916;8.378;2024-02-16T03:47:00;5.27;;;3.10;;
35380;SDS011;21486;51.916;8.378;2024-02-16T03:49:25;6.68;;;2.63;;
35380;SDS011;21486;51.916;8.378;2024-02-16T03:51:54;10.03;;;3.30;;
35380;SDS011;21486;51.916;8.378;2024-02-16T03:54:19;9.93;;;3.03;;
35380;SDS011;21486;51.916;8.378;2024-02-16T03:56:45;9.27;;;2.80;;
35380;SDS011;21486;51.916;8.378;2024-02-16T03:59:10;8.45;;;2.90;;
35380;SDS011;21486;51.916;8.378;2024-02-16T04:01:36;12.37;;;3.20;;
35380;SDS011;21486;51.916;8.378;2024-02-16T04:04:01;5.50;;;2.50;;
35380;SDS011;21486;51.916;8.378;2024-02-16T04:06:28;9.70;;;2.65;;
35380;SDS011;21486;51.916;8.378;2024-02-16T04:08:53;6.43;;;2.50;;
35380;SDS011;21486;51.916;8.378;2024-02-16T04:11:21;10.23;;;3.15;;
35380;SDS011;21486;51.916;8.378;2024-02-16T04:13:46;7.60;;;2.70;;
35380;SDS011;21486;51.916;8.378;2024-02-16T04:16:13;5.35;;;2.38;;
35380;SDS011;21486;51.916;8.378;2024-02-16T04:18:38;6.67;;;2.20;;
35380;SDS011;21486;51.916;8.378;2024-02-16T04:21:04;9.70;;;2.37;;
35380;SDS011;21486;51.916;8.378;2024-02-16T04:23:30;6.03;;;2.80;;
35380;SDS011;21486;51.916;8.378;2024-02-16T04:25:55;5.23;;;2.73;;
35380;SDS011;21486;51.916;8.378;2024-02-16T04:28:21;6.80;;;2.70;;
35380;SDS011;21486;51.916;8.378;2024-02-16T04:30:46;8.43;;;2.73;;
35380;SDS011;21486;51.916;8.378;2024-02-16T04:33:12;7.72;;;2.33;;
35380;SDS011;21486;51.916;8.378;2024-02-16T04:35:38;6.97;;;2.28;;
35380;SDS011;21486;51.916;8.378;2024-02-16T04:38:03;7.40;;;2.63;;
35380;SDS011;21486;51.916;8.378;2024-02-16T04:40:29;4.67;;;2.60;;
35380;SDS011;21486;51.916;8.378;2024-02-16T04:43:01;5.35;;;2.25;;
35380;SDS011;21486;51.916;8.378;2024-02-16T04:45:27;7.80;;;2.60;;
35380;SDS011;21486;51.916;8.378;2024-02-16T04:47:55;5.32;;;2.25;;
35380;SDS011;21486;51.916;8.378;2024-02-16T04:50:20;5.63;;;2.40;;
35380;SDS011;21486;51.916;8.378;2024-02-16T04:52:46;6.43;;;2.63;;
35380;SDS011;21486;51.916;8.378;2024-02-16T04:55:11;7.67;;;2.83;;
35380;SDS011;21486;51.916;8.378;2024-02-16T04:57:37;5.40;;;2.45;;
35380;SDS011;21486;51.916;8.378;2024-02-16T05:00:02;6.27;;;2.57;;
35380;SDS011;21486;51.916;8.378;2024-02-16T05:02:28;5.07;;;2.65;;
35380;SDS011;21486;51.916;8.378;2024-02-16T05:04:54;4.33;;;2.33;;
35380;SDS011;21486;51.916;8.378;2024-02-16T05:07:19;6.90;;;2.50;;
35380;SDS011;21486;51.916;8.378;2024-02-16T05:09:45;5.50;;;2.28;;
35380;SDS011;21486;51.916;8.378;2024-02-16T05:12:10;5.57;;;2.33;;
35380;SDS011;21486;51.916;8.378;2024-02-16T05:14:36;6.67;;;2.47;;
35380;SDS011;21486;51.916;8.378;2024-02-16T05:17:01;4.63;;;2.63;;
35380;SDS011;21486;51.916;8.378;2024-02-16T05:19:27;8.23;;;2.60;;
35380;SDS011;21486;51.916;8.378;2024-02-16T05:21:53;8.70;;;2.75;;
35380;SDS011;21486;51.916;8.378;2024-02-16T05:24:18;6.63;;;2.67;;
35380;SDS011;21486;51.916;8.378;2024-02-16T05:26:43;3.93;;;2.57;;
35380;SDS011;21486;51.916;8.378;2024-02-16T05:29:10;5.68;;;2.70;;
35380;SDS011;21486;51.916;8.378;2024-02-16T05:31:35;5.77;;;2.70;;
35380;SDS011;21486;51.916;8.378;2024-02-16T05:34:01;8.27;;;2.73;;
35380;SDS011;21486;51.916;8.378;2024-02-16T05:36:26;5.15;;;2.35;;
35380;SDS011;21486;51.916;8.378;2024-02-16T05:38:55;7.07;;;2.50;;
35380;SDS011;21486;51.916;8.378;2024-02-16T05:41:21;5.82;;;2.20;;
35380;SDS011;21486;51.916;8.378;2024-02-16T05:43:47;6.10;;;2.55;;
35380;SDS011;21486;51.916;8.378;2024-02-16T05:46:16;4.95;;;2.30;;
35380;SDS011;21486;51.916;8.378;2024-02-16T05:48:45;5.35;;;2.50;;
35380;SDS011;21486;51.916;8.378;2024-02-16T05:51:12;5.67;;;2.10;;
35380;SDS011;21486;51.916;8.378;2024-02-16T05:53:38;6.63;;;2.35;;
35380;SDS011;21486;51.916;8.378;2024-02-16T05:56:05;6.88;;;2.47;;
35380;SDS011;21486;51.916;8.378;2024-02-16T05:58:32;4.43;;;2.40;;
35380;SDS011;21486;51.916;8.378;2024-02-16T06:00:58;6.78;;;2.50;;
35380;SDS011;21486;51.916;8.378;2024-02-16T06:03:24;8.52;;;2.83;;
35380;SDS011;21486;51.916;8.378;2024-02-16T06:05:49;12.37;;;5.63;;
35380;SDS011;21486;51.916;8.378;2024-02-16T06:08:15;9.43;;;3.40;;
35380;SDS011;21486;51.916;8.378;2024-02-16T06:10:42;6.53;;;2.90;;
35380;SDS011;21486;51.916;8.378;2024-02-16T06:13:08;10.43;;;3.93;;
35380;SDS011;21486;51.916;8.378;2024-02-16T06:15:33;11.60;;;5.00;;
35380;SDS011;21486;51.916;8.378;2024-02-16T06:18:02;8.73;;;3.60;;
35380;SDS011;21486;51.916;8.378;2024-02-16T06:20:27;5.40;;;3.15;;
35380;SDS011;21486;51.916;8.378;2024-02-16T06:22:53;8.03;;;2.90;;
35380;SDS011;21486;51.916;8.378;2024-02-16T06:25:19;10.47;;;4.70;;
35380;SDS011;21486;51.916;8.378;2024-02-16T06:27:44;9.17;;;3.93;;
35380;SDS011;21486;51.916;8.378;2024-02-16T06:30:11;5.55;;;2.75;;
35380;SDS011;21486;51.916;8.378;2024-02-16T06:32:38;9.02;;;3.15;;
35380;SDS011;21486;51.916;8.378;2024-02-16T06:35:04;7.38;;;3.40;;
35380;SDS011;21486;51.916;8.378;2024-02-16T06:37:32;7.10;;;2.73;;
35380;SDS011;21486;51.916;8.378;2024-02-16T06:39:57;6.13;;;2.60;;
35380;SDS011;21486;51.916;8.378;2024-02-16T06:42:23;6.07;;;3.10;;
35380;SDS011;21486;51.916;8.378;2024-02-16T06:44:48;7.80;;;2.53;;
35380;SDS011;21486;51.916;8.378;2024-02-16T06:47:14;4.33;;;2.70;;
35380;SDS011;21486;51.916;8.378;2024-02-16T06:49:40;5.85;;;3.30;;
35380;SDS011;21486;51.916;8.378;2024-02-16T06:52:05;7.57;;;3.17;;
35380;SDS011;21486;51.916;8.378;2024-02-16T06:54:31;8.57;;;3.20;;
35380;SDS011;21486;51.916;8.378;2024-02-16T06:56:57;7.13;;;2.92;;
35380;SDS011;21486;51.916;8.378;2024-02-16T06:59:22;5.90;;;3.00;;
35380;SDS011;21486;51.916;8.378;2024-02-16T07:01:48;8.95;;;3.10;;
35380;SDS011;21486;51.916;8.378;2024-02-16T07:04:13;9.00;;;3.17;;
35380;SDS011;21486;51.916;8.378;2024-02-16T07:06:39;7.20;;;3.08;;
35380;SDS011;21486;51.916;8.378;2024-02-16T07:09:05;10.02;;;3.58;;
35380;SDS011;21486;51.916;8.378;2024-02-16T07:11:31;7.73;;;3.20;;
35380;SDS011;21486;51.916;8.378;2024-02-16T07:13:59;7.70;;;3.17;;
35380;SDS011;21486;51.916;8.378;2024-02-16T07:16:27;7.63;;;3.38;;
35380;SDS011;21486;51.916;8.378;2024-02-16T07:18:52;10.93;;;3.80;;
35380;SDS011;21486;51.916;8.378;2024-02-16T07:21:18;8.50;;;3.60;;
35380;SDS011;21486;51.916;8.378;2024-02-16T07:23:45;8.88;;;3.67;;
35380;SDS011;21486;51.916;8.378;2024-02-16T07:26:11;6.75;;;3.22;;
35380;SDS011;21486;51.916;8.378;2024-02-16T07:28:38;7.43;;;3.30;;
35380;SDS011;21486;51.916;8.378;2024-02-16T07:31:03;7.70;;;3.72;;
35380;SDS011;21486;51.916;8.378;2024-02-16T07:33:29;8.30;;;3.50;;
35380;SDS011;21486;51.916;8.378;2024-02-16T07:35:54;6.27;;;3.30;;
35380;SDS011;21486;51.916;8.378;2024-02-16T07:38:20;8.20;;;3.63;;
35380;SDS011;21486;51.916;8.378;2024-02-16T07:40:46;6.97;;;3.07;;
35380;SDS011;21486;51.916;8.378;2024-02-16T07:43:12;13.17;;;3.33;;
35380;SDS011;21486;51.916;8.378;2024-02-16T07:45:38;7.77;;;3.30;;
35380;SDS011;21486;51.916;8.378;2024-02-16T07:48:04;8.50;;;3.30;;
35380;SDS011;21486;51.916;8.378;2024-02-16T07:50:31;10.52;;;4.53;;
35380;SDS011;21486;51.916;8.378;2024-02-16T07:52:57;12.35;;;4.53;;
35380;SDS011;21486;51.916;8.378;2024-02-16T07:55:23;14.02;;;3.40;;
35380;SDS011;21486;51.916;8.378;2024-02-16T07:57:49;7.70;;;3.08;;
35380;SDS011;21486;51.916;8.378;2024-02-16T08:00:18;6.35;;;3.00;;
35380;SDS011;21486;51.916;8.378;2024-02-16T08:02:44;7.80;;;2.90;;
35380;SDS011;21486;51.916;8.378;2024-02-16T08:05:12;8.07;;;3.47;;
35380;SDS011;21486;51.916;8.378;2024-02-16T08:07:41;7.47;;;2.85;;
35380;SDS011;21486;51.916;8.378;2024-02-16T08:10:07;9.55;;;2.70;;
35380;SDS011;21486;51.916;8.378;2024-02-16T08:12:34;6.63;;;2.90;;
35380;SDS011;21486;51.916;8.378;2024-02-16T08:15:00;5.93;;;3.07;;
35380;SDS011;21486;51.916;8.378;2024-02-16T08:17:26;6.93;;;2.72;;
35380;SDS011;21486;51.916;8.378;2024-02-16T08:19:52;5.87;;;2.83;;
35380;SDS011;21486;51.916;8.378;2024-02-16T08:22:19;7.82;;;2.60;;
35380;SDS011;21486;51.916;8.378;2024-02-16T08:24:44;5.53;;;2.43;;
35380;SDS011;21486;51.916;8.378;2024-02-16T08:27:11;8.18;;;2.70;;
35380;SDS011;21486;51.916;8.378;2024-02-16T08:29:40;4.85;;;2.85;;
35380;SDS011;21486;51.916;8.378;2024-02-16T08:32:06;7.28;;;2.40;;
35380;SDS011;21486;51.916;8.378;2024-02-16T08:34:33;6.65;;;2.80;;
35380;SDS011;21486;51.916;8.378;2024-02-16T08:37:01;8.13;;;2.72;;
35380;SDS011;21486;51.916;8.378;2024-02-16T08:39:28;7.45;;;2.95;;
35380;SDS011;21486;51.916;8.378;2024-02-16T08:41:54;8.68;;;2.70;;
35380;SDS011;21486;51.916;8.378;2024-02-16T08:44:20;7.53;;;2.83;;
35380;SDS011;21486;51.916;8.378;2024-02-16T08:46:46;8.70;;;3.30;;
35380;SDS011;21486;51.916;8.378;2024-02-16T08:49:13;13.90;;;2.55;;
35380;SDS011;21486;51.916;8.378;2024-02-16T08:51:39;9.23;;;2.73;;
35380;SDS011;21486;51.916;8.378;2024-02-16T08:54:04;7.43;;;2.50;;
35380;SDS011;21486;51.916;8.378;2024-02-16T08:56:30;4.93;;;2.53;;
35380;SDS011;21486;51.916;8.378;2024-02-16T08:58:56;5.33;;;2.70;;
35380;SDS011;21486;51.916;8.378;2024-02-16T09:01:32;7.20;;;2.63;;
35380;SDS011;21486;51.916;8.378;2024-02-16T09:03:58;7.43;;;2.42;;
35380;SDS011;21486;51.916;8.378;2024-02-16T09:06:23;5.78;;;2.83;;
35380;SDS011;21486;51.916;8.378;2024-02-16T09:08:49;4.80;;;2.63;;
35380;SDS011;21486;51.916;8.378;2024-02-16T09:11:15;4.47;;;2.40;;
35380;SDS011;21486;51.916;8.378;2024-02-16T09:13:42;10.00;;;2.45;;
35380;SDS011;21486;51.916;8.378;2024-02-16T09:16:07;5.40;;;2.03;;
35380;SDS011;21486;51.916;8.378;2024-02-16T09:18:33;6.13;;;2.57;;
35380;SDS011;21486;51.916;8.378;2024-02-16T09:20:59;5.30;;;2.10;;
35380;SDS011;21486;51.916;8.378;2024-02-16T09:23:24;4.32;;;2.10;;
35380;SDS011;21486;51.916;8.378;2024-02-16T09:25:50;5.68;;;2.38;;
35380;SDS011;21486;51.916;8.378;2024-02-16T09:28:16;6.43;;;2.40;;
35380;SDS011;21486;51.916;8.378;2024-02-16T09:30:45;6.53;;;2.20;;
35380;SDS011;21486;51.916;8.378;2024-02-16T09:33:11;5.68;;;2.25;;
35380;SDS011;21486;51.916;8.378;2024-02-16T09:35:36;7.40;;;2.70;;
35380;SDS011;21486;51.916;8.378;2024-02-16T09:38:02;6.80;;;2.27;;
35380;SDS011;21486;51.916;8.378;2024-02-16T09:40:28;7.07;;;2.40;;
35380;SDS011;21486;51.916;8.378;2024-02-16T09:42:53;5.95;;;2.25;;
35380;SDS011;21486;51.916;8.378;2024-02-16T09:45:19;6.38;;;2.60;;
35380;SDS011;21486;51.916;8.378;2024-02-16T09:47:45;5.37;;;2.10;;
35380;SDS011;21486;51.916;8.378;2024-02-16T09:50:14;6.30;;;2.30;;
35380;SDS011;21486;51.916;8.378;2024-02-16T09:52:40;5.63;;;2.60;;
35380;SDS011;21486;51.916;8.378;2024-02-16T09:55:07;5.28;;;2.13;;
35380;SDS011;21486;51.916;8.378;2024-02-16T09:57:37;4.57;;;2.03;;
35380;SDS011;21486;51.916;8.378;2024-02-16T10:00:02;6.93;;;2.50;;
35380;SDS011;21486;51.916;8.378;2024-02-16T10:02:38;7.70;;;2.58;;
35380;SDS011;21486;51.916;8.378;2024-02-16T10:05:17;7.40;;;2.50;;
35380;SDS011;21486;51.916;8.378;2024-02-16T10:07:45;6.70;;;2.38;;
35380;SDS011;21486;51.916;8.378;2024-02-16T10:12:47;6.32;;;2.50;;
35380;SDS011;21486;51.916;8.378;2024-02-16T10:15:18;5.55;;;2.30;;
35380;SDS011;21486;51.916;8.378;2024-02-16T10:17:57;5.47;;;2.20;;
35380;SDS011;21486;51.916;8.378;2024-02-16T10:20:26;9.90;;;2.80;;
35380;SDS011;21486;51.916;8.378;2024-02-16T10:23:05;7.43;;;2.53;;
35380;SDS011;21486;51.916;8.378;2024-02-16T10:25:32;8.05;;;2.45;;
35380;SDS011;21486;51.916;8.378;2024-02-16T10:27:58;6.70;;;1.90;;
35380;SDS011;21486;51.916;8.378;2024-02-16T10:30:29;14.55;;;2.65;;
35380;SDS011;21486;51.916;8.378;2024-02-16T10:32:58;12.38;;;2.55;;
35380;SDS011;21486;51.916;8.378;2024-02-16T10:35:24;4.40;;;2.20;;
35380;SDS011;21486;51.916;8.378;2024-02-16T10:37:51;5.32;;;2.30;;
35380;SDS011;21486;51.916;8.378;2024-02-16T10:40:18;7.03;;;2.55;;
35380;SDS011;21486;51.916;8.378;2024-02-16T10:42:45;11.18;;;2.65;;
35380;SDS011;21486;51.916;8.378;2024-02-16T10:45:11;9.48;;;2.75;;
35380;SDS011;21486;51.916;8.378;2024-02-16T10:47:40;7.23;;;2.60;;
35380;SDS011;21486;51.916;8.378;2024-02-16T10:50:06;10.47;;;3.20;;
35380;SDS011;21486;51.916;8.378;2024-02-16T10:52:33;7.63;;;2.30;;
35380;SDS011;21486;51.916;8.378;2024-02-16T10:55:01;5.25;;;2.40;;
35380;SDS011;21486;51.916;8.378;2024-02-16T10:57:29;10.60;;;2.42;;
35380;SDS011;21486;51.916;8.378;2024-02-16T10:59:54;7.67;;;2.50;;
35380;SDS011;21486;51.916;8.378;2024-02-16T11:02:21;5.95;;;2.40;;
35380;SDS011;21486;51.916;8.378;2024-02-16T11:04:47;6.25;;;2.75;;
35380;SDS011;21486;51.916;8.378;2024-02-16T11:07:16;6.90;;;2.35;;
35380;SDS011;21486;51.916;8.378;2024-02-16T11:09:42;5.45;;;2.70;;
35380;SDS011;21486;51.916;8.378;2024-02-16T11:12:11;7.90;;;2.30;;
35380;SDS011;21486;51.916;8.378;2024-02-16T11:14:41;7.68;;;2.70;;
35380;SDS011;21486;51.916;8.378;2024-02-16T11:17:08;6.78;;;2.50;;
35380;SDS011;21486;51.916;8.378;2024-02-16T11:19:37;6.05;;;2.70;;
35380;SDS011;21486;51.916;8.378;2024-02-16T11:22:09;11.10;;;2.70;;
35380;SDS011;21486;51.916;8.378;2024-02-16T11:24:36;7.07;;;2.50;;
35380;SDS011;21486;51.916;8.378;2024-02-16T11:27:07;10.55;;;2.85;;
35380;SDS011;21486;51.916;8.378;2024-02-16T11:29:36;7.28;;;2.58;;
35380;SDS011;21486;51.916;8.378;2024-02-16T11:32:03;10.65;;;3.03;;
35380;SDS011;21486;51.916;8.378;2024-02-16T11:34:30;7.88;;;2.92;;
35380;SDS011;21486;51.916;8.378;2024-02-16T11:36:56;12.67;;;2.90;;
35380;SDS011;21486;51.916;8.378;2024-02-16T11:39:23;11.02;;;2.60;;
35380;SDS011;21486;51.916;8.378;2024-02-16T11:42:07;9.95;;;2.90;;
35380;SDS011;21486;51.916;8.378;2024-02-16T11:44:37;7.40;;;2.53;;
35380;SDS011;21486;51.916;8.378;2024-02-16T11:47:08;8.88;;;2.80;;
35380;SDS011;21486;51.916;8.378;2024-02-16T11:49:42;7.27;;;2.73;;
35380;SDS011;21486;51.916;8.378;2024-02-16T11:52:07;7.73;;;2.63;;
35380;SDS011;21486;51.916;8.378;2024-02-16T11:54:33;8.15;;;2.80;;
35380;SDS011;21486;51.916;8.378;2024-02-16T11:57:00;7.70;;;2.38;;
35380;SDS011;21486;51.916;8.378;2024-02-16T11:59:26;10.27;;;2.80;;
35380;SDS011;21486;51.916;8.378;2024-02-16T12:01:55;6.63;;;2.43;;
35380;SDS011;21486;51.916;8.378;2024-02-16T12:04:22;8.37;;;2.63;;
35380;SDS011;21486;51.916;8.378;2024-02-16T12:06:55;8.43;;;2.72;;
35380;SDS011;21486;51.916;8.378;2024-02-16T12:09:22;7.40;;;2.63;;
35380;SDS011;21486;51.916;8.378;2024-02-16T12:11:49;8.20;;;2.97;;
35380;SDS011;21486;51.916;8.378;2024-02-16T12:14:18;9.13;;;2.57;;
35380;SDS011;21486;51.916;8.378;2024-02-16T12:16:47;11.93;;;3.45;;
35380;SDS011;21486;51.916;8.378;2024-02-16T12:19:14;11.10;;;2.90;;
35380;SDS011;21486;51.916;8.378;2024-02-16T12:21:40;11.55;;;2.85;;
35380;SDS011;21486;51.916;8.378;2024-02-16T12:24:06;9.68;;;3.35;;
35380;SDS011;21486;51.916;8.378;2024-02-16T12:26:31;7.30;;;3.10;;
35380;SDS011;21486;51.916;8.378;2024-02-16T12:28:57;8.63;;;3.30;;
35380;SDS011;21486;51.916;8.378;2024-02-16T12:31:23;12.82;;;3.15;;
35380;SDS011;21486;51.916;8.378;2024-02-16T12:33:49;7.18;;;2.53;;
35380;SDS011;21486;51.916;8.378;2024-02-16T12:36:14;11.43;;;3.10;;
35380;SDS011;21486;51.916;8.378;2024-02-16T12:38:41;7.15;;;2.72;;
35380;SDS011;21486;51.916;8.378;2024-02-16T12:41:06;8.43;;;3.00;;
35380;SDS011;21486;51.916;8.378;2024-02-16T12:43:33;8.50;;;3.13;;
35380;SDS011;21486;51.916;8.378;2024-02-16T12:45:59;10.17;;;3.37;;
35380;SDS011;21486;51.916;8.378;2024-02-16T12:48:27;9.57;;;3.08;;
35380;SDS011;21486;51.916;8.378;2024-02-16T12:50:53;7.90;;;3.17;;
35380;SDS011;21486;51.916;8.378;2024-02-16T12:53:19;8.57;;;3.00;;
35380;SDS011;21486;51.916;8.378;2024-02-16T12:55:45;10.02;;;3.30;;
35380;SDS011;21486;51.916;8.378;2024-02-16T12:58:11;8.87;;;3.00;;
35380;SDS011;21486;51.916;8.378;2024-02-16T13:00:37;11.50;;;3.20;;
35380;SDS011;21486;51.916;8.378;2024-02-16T13:03:03;10.80;;;3.33;;
35380;SDS011;21486;51.916;8.378;2024-02-16T13:05:29;8.27;;;3.00;;
35380;SDS011;21486;51.916;8.378;2024-02-16T13:07:56;11.45;;;3.45;;
35380;SDS011;21486;51.916;8.378;2024-02-16T13:10:22;10.20;;;3.45;;
35380;SDS011;21486;51.916;8.378;2024-02-16T13:12:47;8.33;;;3.20;;
35380;SDS011;21486;51.916;8.378;2024-02-16T13:15:13;12.33;;;3.07;;
35380;SDS011;21486;51.916;8.378;2024-02-16T13:17:38;7.00;;;3.60;;
35380;SDS011;21486;51.916;8.378;2024-02-16T13:20:04;12.07;;;3.50;;
35380;SDS011;21486;51.916;8.378;2024-02-16T13:22:37;8.37;;;3.20;;
35380;SDS011;21486;51.916;8.378;2024-02-16T13:25:04;12.90;;;3.60;;
35380;SDS011;21486;51.916;8.378;2024-02-16T13:27:31;10.63;;;4.30;;
35380;SDS011;21486;51.916;8.378;2024-02-16T13:29:57;9.05;;;3.22;;
35380;SDS011;21486;51.916;8.378;2024-02-16T13:32:22;12.23;;;4.68;;
35380;SDS011;21486;51.916;8.378;2024-02-16T13:34:48;10.87;;;4.90;;
35380;SDS011;21486;51.916;8.378;2024-02-16T13:37:13;11.77;;;5.57;;
35380;SDS011;21486;51.916;8.378;2024-02-16T13:39:39;13.77;;;5.93;;
35380;SDS011;21486;51.916;8.378;2024-02-16T13:42:05;15.88;;;6.63;;
35380;SDS011;21486;51.916;8.378;2024-02-16T13:44:31;14.82;;;6.72;;
35380;SDS011;21486;51.916;8.378;2024-02-16T13:46:56;18.40;;;7.78;;
35380;SDS011;21486;51.916;8.378;2024-02-16T13:49:22;13.23;;;7.13;;
35380;SDS011;21486;51.916;8.378;2024-02-16T13:51:48;20.30;;;7.80;;
35380;SDS011;21486;51.916;8.378;2024-02-16T13:54:14;18.30;;;7.75;;
35380;SDS011;21486;51.916;8.378;2024-02-16T13:56:39;18.92;;;8.00;;
35380;SDS011;21486;51.916;8.378;2024-02-16T13:59:05;21.77;;;9.27;;
35380;SDS011;21486;51.916;8.378;2024-02-16T14:01:32;18.67;;;9.05;;
35380;SDS011;21486;51.916;8.378;2024-02-16T14:04:01;20.27;;;9.35;;
35380;SDS011;21486;51.916;8.378;2024-02-16T14:06:28;21.67;;;9.90;;
35380;SDS011;21486;51.916;8.378;2024-02-16T14:08:53;18.27;;;9.37;;
35380;SDS011;21486;51.916;8.378;2024-02-16T14:11:20;25.90;;;10.63;;
35380;SDS011;21486;51.916;8.378;2024-02-16T14:13:47;25.27;;;10.30;;
35380;SDS011;21486;51.916;8.378;2024-02-16T14:16:13;17.85;;;9.50;;
35380;SDS011;21486;51.916;8.378;2024-02-16T14:18:38;20.60;;;9.50;;
35380;SDS011;21486;51.916;8.378;2024-02-16T14:21:04;23.37;;;9.47;;
35380;SDS011;21486;51.916;8.378;2024-02-16T14:23:30;23.42;;;9.82;;
35380;SDS011;21486;51.916;8.378;2024-02-16T14:25:56;19.25;;;8.43;;
35380;SDS011;21486;51.916;8.378;2024-02-16T14:28:22;18.35;;;8.98;;
35380;SDS011;21486;51.916;8.378;2024-02-16T14:30:48;20.03;;;8.70;;
35380;SDS011;21486;51.916;8.378;2024-02-16T14:33:13;21.60;;;8.90;;
35380;SDS011;21486;51.916;8.378;2024-02-16T14:35:41;23.40;;;8.80;;
35380;SDS011;21486;51.916;8.378;2024-02-16T14:38:07;19.80;;;8.75;;
35380;SDS011;21486;51.916;8.378;2024-02-16T14:40:33;30.43;;;10.77;;
35380;SDS011;21486;51.916;8.378;2024-02-16T14:42:59;19.77;;;8.40;;
35380;SDS011;21486;51.916;8.378;2024-02-16T14:45:24;19.40;;;7.88;;